Price, Utah
Current Conditions -  °F | °C
As of 4:53 AM on Tuesday 27 Jan 2015 (Local Time) from KPUC Reporting Station
Clear Clear  
Wind Chill: -3°   Ceiling: Unl
Heat Index:   Visibility: 10mi
Dew Point: -4°   Wind: 6mph
Humidity: 73%   Direction: 10°N
Pressure: 30.28"   Gusts: NA
Location:  39.6°N, 110.81°W
Report Text: KPUC 271153Z AUTO 01005KT 10SM CLR 00/M04 A3028 RMK AO2 SLP258 7//// T00001044 10017 21011 58004 $
Loading
Personal Weather Stations






























Interactive Weather Map New forecast layout! Learn more

10-Day Weather Forecast

Advertisements
Track Severe Weather on mobile